sensor_id;sensor_type;location;lat;lon;timestamp;P1;durP1;ratioP1;P2;durP2;ratioP2
42094;SDS011;27753;55.724;37.612;2023-03-13T00:01:28;2.95;;;1.83;;
42094;SDS011;27753;55.724;37.612;2023-03-13T00:03:59;2.20;;;1.38;;
42094;SDS011;27753;55.724;37.612;2023-03-13T00:06:26;5.18;;;1.73;;
42094;SDS011;27753;55.724;37.612;2023-03-13T00:08:57;4.35;;;1.73;;
42094;SDS011;27753;55.724;37.612;2023-03-13T00:11:24;2.35;;;1.58;;
42094;SDS011;27753;55.724;37.612;2023-03-13T00:13:57;1.80;;;1.13;;
42094;SDS011;27753;55.724;37.612;2023-03-13T00:16:25;2.22;;;1.13;;
42094;SDS011;27753;55.724;37.612;2023-03-13T00:18:52;3.15;;;1.75;;
42094;SDS011;27753;55.724;37.612;2023-03-13T00:21:20;2.67;;;2.47;;
42094;SDS011;27753;55.724;37.612;2023-03-13T00:23:48;5.50;;;1.30;;
42094;SDS011;27753;55.724;37.612;2023-03-13T00:26:15;6.90;;;1.40;;
42094;SDS011;27753;55.724;37.612;2023-03-13T00:28:43;1.83;;;1.23;;
42094;SDS011;27753;55.724;37.612;2023-03-13T00:31:13;1.23;;;1.13;;
42094;SDS011;27753;55.724;37.612;2023-03-13T00:33:43;1.38;;;1.27;;
42094;SDS011;27753;55.724;37.612;2023-03-13T00:36:12;1.20;;;1.10;;
42094;SDS011;27753;55.724;37.612;2023-03-13T00:38:40;2.55;;;1.00;;
42094;SDS011;27753;55.724;37.612;2023-03-13T00:41:11;2.53;;;1.27;;
42094;SDS011;27753;55.724;37.612;2023-03-13T00:43:38;2.22;;;1.15;;
42094;SDS011;27753;55.724;37.612;2023-03-13T00:48:38;2.45;;;1.50;;
42094;SDS011;27753;55.724;37.612;2023-03-13T00:51:21;2.00;;;1.52;;
42094;SDS011;27753;55.724;37.612;2023-03-13T00:53:51;1.25;;;1.00;;
42094;SDS011;27753;55.724;37.612;2023-03-13T00:56:17;0.73;;;0.73;;
42094;SDS011;27753;55.724;37.612;2023-03-13T00:58:45;1.00;;;0.95;;
42094;SDS011;27753;55.724;37.612;2023-03-13T01:01:16;2.47;;;1.58;;
42094;SDS011;27753;55.724;37.612;2023-03-13T01:03:45;1.30;;;1.20;;
42094;SDS011;27753;55.724;37.612;2023-03-13T01:06:16;2.10;;;1.65;;
42094;SDS011;27753;55.724;37.612;2023-03-13T01:08:45;3.70;;;1.15;;
42094;SDS011;27753;55.724;37.612;2023-03-13T01:11:12;3.20;;;1.20;;
42094;SDS011;27753;55.724;37.612;2023-03-13T01:13:40;1.23;;;1.13;;
42094;SDS011;27753;55.724;37.612;2023-03-13T01:16:07;3.80;;;1.52;;
42094;SDS011;27753;55.724;37.612;2023-03-13T01:18:36;2.83;;;2.05;;
42094;SDS011;27753;55.724;37.612;2023-03-13T01:21:02;2.88;;;1.75;;
42094;SDS011;27753;55.724;37.612;2023-03-13T01:23:28;7.60;;;2.20;;
42094;SDS011;27753;55.724;37.612;2023-03-13T01:25:55;6.70;;;3.33;;
42094;SDS011;27753;55.724;37.612;2023-03-13T01:28:31;7.47;;;3.17;;
42094;SDS011;27753;55.724;37.612;2023-03-13T01:31:45;11.35;;;5.60;;
42094;SDS011;27753;55.724;37.612;2023-03-13T01:33:54;11.82;;;6.07;;
42094;SDS011;27753;55.724;37.612;2023-03-13T01:36:22;19.23;;;8.23;;
42094;SDS011;27753;55.724;37.612;2023-03-13T01:38:49;12.15;;;6.97;;
42094;SDS011;27753;55.724;37.612;2023-03-13T01:41:17;19.23;;;8.65;;
42094;SDS011;27753;55.724;37.612;2023-03-13T01:43:44;18.88;;;9.50;;
42094;SDS011;27753;55.724;37.612;2023-03-13T01:46:12;13.93;;;7.63;;
42094;SDS011;27753;55.724;37.612;2023-03-13T01:49:02;13.32;;;7.97;;
42094;SDS011;27753;55.724;37.612;2023-03-13T01:51:43;10.73;;;7.07;;
42094;SDS011;27753;55.724;37.612;2023-03-13T01:57:04;15.65;;;7.70;;
42094;SDS011;27753;55.724;37.612;2023-03-13T01:59:36;13.32;;;8.63;;
42094;SDS011;27753;55.724;37.612;2023-03-13T02:02:07;14.70;;;8.63;;
42094;SDS011;27753;55.724;37.612;2023-03-13T02:04:37;13.30;;;6.82;;
42094;SDS011;27753;55.724;37.612;2023-03-13T02:07:09;14.57;;;11.43;;
42094;SDS011;27753;55.724;37.612;2023-03-13T02:09:41;18.98;;;12.90;;
42094;SDS011;27753;55.724;37.612;2023-03-13T02:12:09;25.17;;;13.18;;
42094;SDS011;27753;55.724;37.612;2023-03-13T02:14:39;25.58;;;13.88;;
42094;SDS011;27753;55.724;37.612;2023-03-13T02:17:07;29.73;;;16.13;;
42094;SDS011;27753;55.724;37.612;2023-03-13T02:19:48;31.63;;;18.08;;
42094;SDS011;27753;55.724;37.612;2023-03-13T02:22:23;39.13;;;19.85;;
42094;SDS011;27753;55.724;37.612;2023-03-13T02:27:24;31.63;;;19.13;;
42094;SDS011;27753;55.724;37.612;2023-03-13T02:29:50;36.97;;;20.20;;
42094;SDS011;27753;55.724;37.612;2023-03-13T02:32:17;42.85;;;22.70;;
42094;SDS011;27753;55.724;37.612;2023-03-13T02:34:43;41.25;;;24.55;;
42094;SDS011;27753;55.724;37.612;2023-03-13T02:37:12;40.72;;;23.15;;
42094;SDS011;27753;55.724;37.612;2023-03-13T02:39:43;41.60;;;23.77;;
42094;SDS011;27753;55.724;37.612;2023-03-13T02:42:12;40.67;;;24.77;;
42094;SDS011;27753;55.724;37.612;2023-03-13T02:44:40;32.80;;;22.50;;
42094;SDS011;27753;55.724;37.612;2023-03-13T02:47:08;31.02;;;19.70;;
42094;SDS011;27753;55.724;37.612;2023-03-13T02:49:34;30.38;;;20.23;;
42094;SDS011;27753;55.724;37.612;2023-03-13T02:52:09;24.65;;;15.25;;
42094;SDS011;27753;55.724;37.612;2023-03-13T02:54:41;19.42;;;12.68;;
42094;SDS011;27753;55.724;37.612;2023-03-13T02:57:10;16.73;;;10.05;;
42094;SDS011;27753;55.724;37.612;2023-03-13T02:59:36;14.50;;;11.18;;
42094;SDS011;27753;55.724;37.612;2023-03-13T03:02:02;13.80;;;9.90;;
42094;SDS011;27753;55.724;37.612;2023-03-13T03:04:28;13.55;;;8.35;;
42094;SDS011;27753;55.724;37.612;2023-03-13T03:06:54;13.50;;;8.30;;
42094;SDS011;27753;55.724;37.612;2023-03-13T03:09:21;9.30;;;7.60;;
42094;SDS011;27753;55.724;37.612;2023-03-13T03:11:48;9.93;;;6.93;;
42094;SDS011;27753;55.724;37.612;2023-03-13T03:14:14;10.52;;;6.70;;
42094;SDS011;27753;55.724;37.612;2023-03-13T03:16:40;6.88;;;5.78;;
42094;SDS011;27753;55.724;37.612;2023-03-13T03:19:07;7.78;;;5.07;;
42094;SDS011;27753;55.724;37.612;2023-03-13T03:21:33;6.82;;;4.57;;
42094;SDS011;27753;55.724;37.612;2023-03-13T03:23:59;7.07;;;4.40;;
42094;SDS011;27753;55.724;37.612;2023-03-13T03:26:25;6.82;;;4.15;;
42094;SDS011;27753;55.724;37.612;2023-03-13T03:28:51;5.15;;;3.35;;
42094;SDS011;27753;55.724;37.612;2023-03-13T03:31:17;6.72;;;3.45;;
42094;SDS011;27753;55.724;37.612;2023-03-13T03:33:43;11.57;;;3.65;;
42094;SDS011;27753;55.724;37.612;2023-03-13T03:36:11;5.70;;;2.88;;
42094;SDS011;27753;55.724;37.612;2023-03-13T03:38:38;6.13;;;3.38;;
42094;SDS011;27753;55.724;37.612;2023-03-13T03:41:05;2.80;;;2.40;;
42094;SDS011;27753;55.724;37.612;2023-03-13T03:43:35;2.95;;;2.53;;
42094;SDS011;27753;55.724;37.612;2023-03-13T03:46:01;3.78;;;2.35;;
42094;SDS011;27753;55.724;37.612;2023-03-13T03:48:27;2.80;;;1.70;;
42094;SDS011;27753;55.724;37.612;2023-03-13T03:51:04;3.10;;;2.50;;
42094;SDS011;27753;55.724;37.612;2023-03-13T03:53:30;4.10;;;2.20;;
42094;SDS011;27753;55.724;37.612;2023-03-13T03:55:57;3.25;;;1.83;;
42094;SDS011;27753;55.724;37.612;2023-03-13T03:58:23;3.08;;;1.70;;
42094;SDS011;27753;55.724;37.612;2023-03-13T04:00:49;2.50;;;1.20;;
42094;SDS011;27753;55.724;37.612;2023-03-13T04:03:15;2.63;;;1.30;;
42094;SDS011;27753;55.724;37.612;2023-03-13T04:05:41;2.15;;;1.42;;
42094;SDS011;27753;55.724;37.612;2023-03-13T04:08:08;2.08;;;1.40;;
42094;SDS011;27753;55.724;37.612;2023-03-13T04:10:35;1.95;;;1.52;;
42094;SDS011;27753;55.724;37.612;2023-03-13T04:13:01;3.00;;;2.13;;
42094;SDS011;27753;55.724;37.612;2023-03-13T04:15:27;1.40;;;0.90;;
42094;SDS011;27753;55.724;37.612;2023-03-13T04:17:53;2.20;;;1.20;;
42094;SDS011;27753;55.724;37.612;2023-03-13T04:20:19;2.70;;;1.58;;
42094;SDS011;27753;55.724;37.612;2023-03-13T04:22:45;1.60;;;1.30;;
42094;SDS011;27753;55.724;37.612;2023-03-13T04:25:11;1.98;;;1.60;;
42094;SDS011;27753;55.724;37.612;2023-03-13T04:27:37;3.08;;;2.00;;
42094;SDS011;27753;55.724;37.612;2023-03-13T04:30:03;4.05;;;1.90;;
42094;SDS011;27753;55.724;37.612;2023-03-13T04:32:31;2.42;;;1.75;;
42094;SDS011;27753;55.724;37.612;2023-03-13T04:35:08;3.58;;;1.98;;
42094;SDS011;27753;55.724;37.612;2023-03-13T04:37:37;3.47;;;1.90;;
42094;SDS011;27753;55.724;37.612;2023-03-13T04:40:04;4.00;;;1.83;;
42094;SDS011;27753;55.724;37.612;2023-03-13T04:44:56;4.68;;;2.08;;
42094;SDS011;27753;55.724;37.612;2023-03-13T04:47:22;2.60;;;1.50;;
42094;SDS011;27753;55.724;37.612;2023-03-13T04:49:48;3.60;;;2.47;;
42094;SDS011;27753;55.724;37.612;2023-03-13T04:52:14;4.07;;;2.30;;
42094;SDS011;27753;55.724;37.612;2023-03-13T04:54:40;3.47;;;2.13;;
42094;SDS011;27753;55.724;37.612;2023-03-13T04:57:06;3.47;;;1.80;;
42094;SDS011;27753;55.724;37.612;2023-03-13T04:59:32;3.45;;;1.92;;
42094;SDS011;27753;55.724;37.612;2023-03-13T05:01:58;1.60;;;1.50;;
42094;SDS011;27753;55.724;37.612;2023-03-13T05:04:24;3.20;;;2.03;;
42094;SDS011;27753;55.724;37.612;2023-03-13T05:06:50;1.67;;;1.58;;
42094;SDS011;27753;55.724;37.612;2023-03-13T05:09:16;3.85;;;2.08;;
42094;SDS011;27753;55.724;37.612;2023-03-13T05:11:41;3.55;;;2.35;;
42094;SDS011;27753;55.724;37.612;2023-03-13T05:14:07;2.78;;;1.77;;
42094;SDS011;27753;55.724;37.612;2023-03-13T05:16:36;4.03;;;2.10;;
42094;SDS011;27753;55.724;37.612;2023-03-13T05:21:28;2.58;;;2.35;;
42094;SDS011;27753;55.724;37.612;2023-03-13T05:23:54;3.53;;;2.00;;
42094;SDS011;27753;55.724;37.612;2023-03-13T05:26:21;3.47;;;1.83;;
42094;SDS011;27753;55.724;37.612;2023-03-13T05:28:47;2.17;;;1.50;;
42094;SDS011;27753;55.724;37.612;2023-03-13T05:31:13;2.13;;;1.48;;
42094;SDS011;27753;55.724;37.612;2023-03-13T05:33:41;6.72;;;3.70;;
42094;SDS011;27753;55.724;37.612;2023-03-13T05:36:07;3.55;;;2.13;;
42094;SDS011;27753;55.724;37.612;2023-03-13T05:38:33;2.30;;;1.85;;
42094;SDS011;27753;55.724;37.612;2023-03-13T05:40:59;2.25;;;1.45;;
42094;SDS011;27753;55.724;37.612;2023-03-13T05:43:25;2.25;;;1.55;;
42094;SDS011;27753;55.724;37.612;2023-03-13T05:45:51;4.60;;;2.25;;
42094;SDS011;27753;55.724;37.612;2023-03-13T05:48:17;3.83;;;2.58;;
42094;SDS011;27753;55.724;37.612;2023-03-13T05:50:43;6.25;;;2.25;;
42094;SDS011;27753;55.724;37.612;2023-03-13T05:53:09;5.82;;;2.22;;
42094;SDS011;27753;55.724;37.612;2023-03-13T05:55:34;3.40;;;1.80;;
42094;SDS011;27753;55.724;37.612;2023-03-13T05:58:03;1.85;;;1.50;;
42094;SDS011;27753;55.724;37.612;2023-03-13T06:00:29;3.72;;;2.10;;
42094;SDS011;27753;55.724;37.612;2023-03-13T06:02:55;5.15;;;2.75;;
42094;SDS011;27753;55.724;37.612;2023-03-13T06:05:22;3.78;;;2.10;;
42094;SDS011;27753;55.724;37.612;2023-03-13T06:07:49;9.75;;;2.33;;
42094;SDS011;27753;55.724;37.612;2023-03-13T06:10:15;4.78;;;1.95;;
42094;SDS011;27753;55.724;37.612;2023-03-13T06:12:41;7.43;;;2.33;;
42094;SDS011;27753;55.724;37.612;2023-03-13T06:15:07;5.57;;;2.92;;
42094;SDS011;27753;55.724;37.612;2023-03-13T06:17:34;7.43;;;3.08;;
42094;SDS011;27753;55.724;37.612;2023-03-13T06:20:00;5.30;;;1.83;;
42094;SDS011;27753;55.724;37.612;2023-03-13T06:22:29;5.75;;;2.00;;
42094;SDS011;27753;55.724;37.612;2023-03-13T06:24:55;5.10;;;1.70;;
42094;SDS011;27753;55.724;37.612;2023-03-13T06:27:21;3.90;;;1.60;;
42094;SDS011;27753;55.724;37.612;2023-03-13T06:29:47;4.07;;;1.85;;
42094;SDS011;27753;55.724;37.612;2023-03-13T06:32:13;5.75;;;2.25;;
42094;SDS011;27753;55.724;37.612;2023-03-13T06:34:39;5.57;;;1.70;;
42094;SDS011;27753;55.724;37.612;2023-03-13T06:37:04;3.65;;;2.13;;
42094;SDS011;27753;55.724;37.612;2023-03-13T06:39:31;7.32;;;2.10;;
42094;SDS011;27753;55.724;37.612;2023-03-13T06:41:57;5.82;;;2.20;;
42094;SDS011;27753;55.724;37.612;2023-03-13T06:44:23;5.35;;;2.00;;
42094;SDS011;27753;55.724;37.612;2023-03-13T06:46:49;3.38;;;1.98;;
42094;SDS011;27753;55.724;37.612;2023-03-13T06:49:15;4.15;;;1.73;;
42094;SDS011;27753;55.724;37.612;2023-03-13T06:51:41;6.20;;;2.03;;
42094;SDS011;27753;55.724;37.612;2023-03-13T06:54:07;3.88;;;1.73;;
42094;SDS011;27753;55.724;37.612;2023-03-13T06:56:33;5.85;;;2.20;;
42094;SDS011;27753;55.724;37.612;2023-03-13T06:59:00;3.13;;;1.83;;
42094;SDS011;27753;55.724;37.612;2023-03-13T07:01:27;1.98;;;1.67;;
42094;SDS011;27753;55.724;37.612;2023-03-13T07:03:55;6.43;;;2.10;;
42094;SDS011;27753;55.724;37.612;2023-03-13T07:06:21;4.63;;;2.25;;
42094;SDS011;27753;55.724;37.612;2023-03-13T07:08:47;4.80;;;1.63;;
42094;SDS011;27753;55.724;37.612;2023-03-13T07:11:14;3.78;;;1.67;;
42094;SDS011;27753;55.724;37.612;2023-03-13T07:13:40;4.07;;;2.13;;
42094;SDS011;27753;55.724;37.612;2023-03-13T07:16:07;3.80;;;1.75;;
42094;SDS011;27753;55.724;37.612;2023-03-13T07:18:46;2.17;;;1.35;;
42094;SDS011;27753;55.724;37.612;2023-03-13T07:21:17;12.43;;;5.53;;
42094;SDS011;27753;55.724;37.612;2023-03-13T07:23:47;4.75;;;1.63;;
42094;SDS011;27753;55.724;37.612;2023-03-13T07:26:16;8.32;;;2.25;;
42094;SDS011;27753;55.724;37.612;2023-03-13T07:29:11;3.57;;;1.77;;
42094;SDS011;27753;55.724;37.612;2023-03-13T07:34:05;4.53;;;2.17;;
42094;SDS011;27753;55.724;37.612;2023-03-13T07:36:31;3.78;;;2.13;;
42094;SDS011;27753;55.724;37.612;2023-03-13T07:38:59;4.20;;;1.58;;
42094;SDS011;27753;55.724;37.612;2023-03-13T07:41:25;4.28;;;2.55;;
42094;SDS011;27753;55.724;37.612;2023-03-13T07:43:51;7.95;;;1.95;;
42094;SDS011;27753;55.724;37.612;2023-03-13T07:46:17;7.78;;;2.78;;
42094;SDS011;27753;55.724;37.612;2023-03-13T07:48:44;9.60;;;3.35;;
42094;SDS011;27753;55.724;37.612;2023-03-13T07:51:15;2.28;;;1.95;;
42094;SDS011;27753;55.724;37.612;2023-03-13T07:53:43;5.25;;;2.10;;
42094;SDS011;27753;55.724;37.612;2023-03-13T07:56:12;2.88;;;1.75;;
42094;SDS011;27753;55.724;37.612;2023-03-13T07:58:39;2.80;;;1.90;;
42094;SDS011;27753;55.724;37.612;2023-03-13T08:01:17;3.55;;;1.92;;
42094;SDS011;27753;55.724;37.612;2023-03-13T08:03:51;6.70;;;1.95;;
42094;SDS011;27753;55.724;37.612;2023-03-13T08:06:25;2.50;;;1.95;;
42094;SDS011;27753;55.724;37.612;2023-03-13T08:09:00;2.58;;;1.73;;
42094;SDS011;27753;55.724;37.612;2023-03-13T08:11:34;3.58;;;2.20;;
42094;SDS011;27753;55.724;37.612;2023-03-13T08:17:17;2.63;;;1.60;;
42094;SDS011;27753;55.724;37.612;2023-03-13T08:19:52;6.47;;;2.70;;
42094;SDS011;27753;55.724;37.612;2023-03-13T08:24:47;4.32;;;2.28;;
42094;SDS011;27753;55.724;37.612;2023-03-13T08:27:13;4.90;;;2.25;;
42094;SDS011;27753;55.724;37.612;2023-03-13T08:30:22;4.32;;;1.95;;
42094;SDS011;27753;55.724;37.612;2023-03-13T08:32:50;3.63;;;2.03;;
42094;SDS011;27753;55.724;37.612;2023-03-13T08:39:32;4.82;;;4.32;;
42094;SDS011;27753;55.724;37.612;2023-03-13T08:44:47;3.60;;;2.58;;
42094;SDS011;27753;55.724;37.612;2023-03-13T08:53:22;7.07;;;2.63;;
42094;SDS011;27753;55.724;37.612;2023-03-13T08:56:09;2.15;;;1.38;;
42094;SDS011;27753;55.724;37.612;2023-03-13T08:58:40;2.47;;;1.52;;
42094;SDS011;27753;55.724;37.612;2023-03-13T09:01:19;2.63;;;1.45;;
42094;SDS011;27753;55.724;37.612;2023-03-13T09:03:55;3.00;;;1.80;;
42094;SDS011;27753;55.724;37.612;2023-03-13T09:06:56;3.20;;;2.40;;
42094;SDS011;27753;55.724;37.612;2023-03-13T09:09:25;2.83;;;1.73;;
42094;SDS011;27753;55.724;37.612;2023-03-13T09:12:01;8.50;;;1.88;;
42094;SDS011;27753;55.724;37.612;2023-03-13T09:14:40;7.07;;;2.60;;
42094;SDS011;27753;55.724;37.612;2023-03-13T09:17:23;7.00;;;2.80;;
42094;SDS011;27753;55.724;37.612;2023-03-13T09:23:30;2.30;;;1.70;;
42094;SDS011;27753;55.724;37.612;2023-03-13T09:26:01;3.42;;;1.58;;
42094;SDS011;27753;55.724;37.612;2023-03-13T09:28:30;4.20;;;1.58;;
42094;SDS011;27753;55.724;37.612;2023-03-13T09:31:26;1.77;;;1.20;;
42094;SDS011;27753;55.724;37.612;2023-03-13T09:34:07;3.08;;;2.15;;
42094;SDS011;27753;55.724;37.612;2023-03-13T09:36:52;5.30;;;1.90;;
42094;SDS011;27753;55.724;37.612;2023-03-13T09:39:46;5.93;;;2.20;;
42094;SDS011;27753;55.724;37.612;2023-03-13T09:44:52;4.97;;;2.40;;
42094;SDS011;27753;55.724;37.612;2023-03-13T09:51:31;5.20;;;1.60;;
42094;SDS011;27753;55.724;37.612;2023-03-13T09:54:36;1.98;;;1.60;;
42094;SDS011;27753;55.724;37.612;2023-03-13T09:59:54;4.50;;;2.05;;
42094;SDS011;27753;55.724;37.612;2023-03-13T10:02:37;7.53;;;3.25;;
42094;SDS011;27753;55.724;37.612;2023-03-13T10:05:24;4.65;;;2.42;;
42094;SDS011;27753;55.724;37.612;2023-03-13T10:08:34;8.52;;;4.78;;
42094;SDS011;27753;55.724;37.612;2023-03-13T10:10:43;8.82;;;5.43;;
42094;SDS011;27753;55.724;37.612;2023-03-13T10:13:24;7.32;;;3.50;;
42094;SDS011;27753;55.724;37.612;2023-03-13T10:16:02;7.05;;;4.63;;
42094;SDS011;27753;55.724;37.612;2023-03-13T10:18:34;5.35;;;2.90;;
42094;SDS011;27753;55.724;37.612;2023-03-13T10:21:04;7.30;;;2.95;;
42094;SDS011;27753;55.724;37.612;2023-03-13T10:23:49;4.97;;;2.88;;
42094;SDS011;27753;55.724;37.612;2023-03-13T10:26:28;3.13;;;1.98;;
42094;SDS011;27753;55.724;37.612;2023-03-13T10:31:48;3.75;;;3.00;;
42094;SDS011;27753;55.724;37.612;2023-03-13T10:34:23;7.47;;;3.63;;
42094;SDS011;27753;55.724;37.612;2023-03-13T10:39:23;4.22;;;2.60;;
42094;SDS011;27753;55.724;37.612;2023-03-13T10:41:54;3.90;;;2.80;;
42094;SDS011;27753;55.724;37.612;2023-03-13T10:44:36;4.60;;;2.25;;
42094;SDS011;27753;55.724;37.612;2023-03-13T10:47:08;6.38;;;2.55;;
42094;SDS011;27753;55.724;37.612;2023-03-13T10:49:45;8.15;;;3.35;;
42094;SDS011;27753;55.724;37.612;2023-03-13T10:58:08;6.78;;;2.80;;
42094;SDS011;27753;55.724;37.612;2023-03-13T11:00:47;4.78;;;2.92;;
42094;SDS011;27753;55.724;37.612;2023-03-13T11:03:18;4.63;;;2.30;;
42094;SDS011;27753;55.724;37.612;2023-03-13T11:05:58;6.93;;;3.92;;
42094;SDS011;27753;55.724;37.612;2023-03-13T11:08:27;7.25;;;3.25;;
42094;SDS011;27753;55.724;37.612;2023-03-13T11:11:03;6.45;;;3.13;;
42094;SDS011;27753;55.724;37.612;2023-03-13T11:13:51;3.60;;;2.58;;
42094;SDS011;27753;55.724;37.612;2023-03-13T11:16:27;3.55;;;1.95;;
42094;SDS011;27753;55.724;37.612;2023-03-13T11:19:57;3.70;;;2.30;;
42094;SDS011;27753;55.724;37.612;2023-03-13T11:27:50;5.18;;;3.15;;
42094;SDS011;27753;55.724;37.612;2023-03-13T11:35:46;4.90;;;2.70;;
42094;SDS011;27753;55.724;37.612;2023-03-13T11:38:42;6.88;;;3.30;;
42094;SDS011;27753;55.724;37.612;2023-03-13T11:41:34;3.08;;;2.15;;
42094;SDS011;27753;55.724;37.612;2023-03-13T11:56:13;4.20;;;3.00;;
42094;SDS011;27753;55.724;37.612;2023-03-13T11:59:12;4.25;;;3.70;;
42094;SDS011;27753;55.724;37.612;2023-03-13T12:02:24;5.07;;;2.72;;
42094;SDS011;27753;55.724;37.612;2023-03-13T12:05:14;5.40;;;2.83;;
42094;SDS011;27753;55.724;37.612;2023-03-13T12:08:02;5.95;;;3.70;;
42094;SDS011;27753;55.724;37.612;2023-03-13T12:10:33;4.57;;;2.80;;
42094;SDS011;27753;55.724;37.612;2023-03-13T12:13:12;7.30;;;3.58;;
42094;SDS011;27753;55.724;37.612;2023-03-13T12:15:58;11.77;;;4.03;;
42094;SDS011;27753;55.724;37.612;2023-03-13T12:18:31;11.07;;;4.22;;
42094;SDS011;27753;55.724;37.612;2023-03-13T12:21:05;7.40;;;3.55;;
42094;SDS011;27753;55.724;37.612;2023-03-13T12:26:25;4.68;;;3.50;;
42094;SDS011;27753;55.724;37.612;2023-03-13T12:32:18;7.13;;;2.97;;
42094;SDS011;27753;55.724;37.612;2023-03-13T12:37:33;4.57;;;2.83;;
42094;SDS011;27753;55.724;37.612;2023-03-13T12:46:13;5.55;;;3.17;;
42094;SDS011;27753;55.724;37.612;2023-03-13T12:48:56;4.50;;;3.38;;
42094;SDS011;27753;55.724;37.612;2023-03-13T13:00:17;3.67;;;2.10;;
42094;SDS011;27753;55.724;37.612;2023-03-13T13:03:51;5.00;;;2.90;;
42094;SDS011;27753;55.724;37.612;2023-03-13T13:06:04;2.97;;;2.47;;
42094;SDS011;27753;55.724;37.612;2023-03-13T13:13:59;2.35;;;2.00;;
42094;SDS011;27753;55.724;37.612;2023-03-13T13:18:52;2.47;;;1.70;;
42094;SDS011;27753;55.724;37.612;2023-03-13T13:21:19;2.22;;;1.65;;
42094;SDS011;27753;55.724;37.612;2023-03-13T13:23:48;2.53;;;2.15;;
42094;SDS011;27753;55.724;37.612;2023-03-13T13:29:40;2.95;;;1.50;;
42094;SDS011;27753;55.724;37.612;2023-03-13T13:36:59;1.98;;;1.52;;
42094;SDS011;27753;55.724;37.612;2023-03-13T13:39:52;2.92;;;1.40;;
42094;SDS011;27753;55.724;37.612;2023-03-13T13:48:12;3.80;;;1.92;;
42094;SDS011;27753;55.724;37.612;2023-03-13T13:53:50;2.53;;;1.77;;
42094;SDS011;27753;55.724;37.612;2023-03-13T13:56:37;2.85;;;1.25;;
42094;SDS011;27753;55.724;37.612;2023-03-13T14:05:22;1.98;;;1.27;;
42094;SDS011;27753;55.724;37.612;2023-03-13T14:10:45;6.28;;;2.50;;
42094;SDS011;27753;55.724;37.612;2023-03-13T14:13:31;1.42;;;0.90;;
42094;SDS011;27753;55.724;37.612;2023-03-13T14:16:08;1.80;;;1.08;;
42094;SDS011;27753;55.724;37.612;2023-03-13T14:18:45;2.08;;;1.35;;
42094;SDS011;27753;55.724;37.612;2023-03-13T14:21:12;1.80;;;1.60;;
42094;SDS011;27753;55.724;37.612;2023-03-13T14:23:45;4.20;;;1.85;;
42094;SDS011;27753;55.724;37.612;2023-03-13T14:28:53;5.00;;;1.15;;
42094;SDS011;27753;55.724;37.612;2023-03-13T14:33:55;4.65;;;1.33;;
42094;SDS011;27753;55.724;37.612;2023-03-13T14:36:22;2.03;;;1.20;;
42094;SDS011;27753;55.724;37.612;2023-03-13T14:38:52;2.75;;;1.60;;
42094;SDS011;27753;55.724;37.612;2023-03-13T14:41:27;4.50;;;1.50;;
42094;SDS011;27753;55.724;37.612;2023-03-13T14:44:02;3.13;;;1.80;;
42094;SDS011;27753;55.724;37.612;2023-03-13T14:46:41;3.15;;;1.30;;
42094;SDS011;27753;55.724;37.612;2023-03-13T14:51:41;3.47;;;1.73;;
42094;SDS011;27753;55.724;37.612;2023-03-13T14:57:28;2.13;;;1.52;;
42094;SDS011;27753;55.724;37.612;2023-03-13T15:05:42;2.28;;;1.67;;
42094;SDS011;27753;55.724;37.612;2023-03-13T15:08:18;2.75;;;2.03;;
42094;SDS011;27753;55.724;37.612;2023-03-13T15:10:49;2.80;;;2.03;;
42094;SDS011;27753;55.724;37.612;2023-03-13T15:15:45;3.58;;;1.67;;
42094;SDS011;27753;55.724;37.612;2023-03-13T15:18:15;4.70;;;2.10;;
42094;SDS011;27753;55.724;37.612;2023-03-13T15:20:51;3.63;;;1.95;;
42094;SDS011;27753;55.724;37.612;2023-03-13T15:23:19;3.78;;;2.03;;
42094;SDS011;27753;55.724;37.612;2023-03-13T15:25:46;2.58;;;1.38;;
42094;SDS011;27753;55.724;37.612;2023-03-13T15:28:17;1.77;;;1.40;;
42094;SDS011;27753;55.724;37.612;2023-03-13T15:30:48;4.57;;;1.60;;
42094;SDS011;27753;55.724;37.612;2023-03-13T15:33:16;2.05;;;1.50;;
42094;SDS011;27753;55.724;37.612;2023-03-13T15:35:47;14.07;;;1.98;;
42094;SDS011;27753;55.724;37.612;2023-03-13T15:38:18;2.58;;;1.58;;
42094;SDS011;27753;55.724;37.612;2023-03-13T15:40:45;3.17;;;1.55;;
42094;SDS011;27753;55.724;37.612;2023-03-13T15:43:14;2.83;;;1.40;;
42094;SDS011;27753;55.724;37.612;2023-03-13T15:45:41;5.05;;;1.35;;
42094;SDS011;27753;55.724;37.612;2023-03-13T15:48:16;2.50;;;1.40;;
42094;SDS011;27753;55.724;37.612;2023-03-13T15:50:48;6.07;;;2.40;;
42094;SDS011;27753;55.724;37.612;2023-03-13T15:53:16;2.92;;;1.83;;
42094;SDS011;27753;55.724;37.612;2023-03-13T15:56:13;3.45;;;1.30;;
42094;SDS011;27753;55.724;37.612;2023-03-13T15:58:41;2.95;;;1.50;;
42094;SDS011;27753;55.724;37.612;2023-03-13T16:01:09;4.57;;;1.75;;
42094;SDS011;27753;55.724;37.612;2023-03-13T16:03:39;3.08;;;1.50;;
42094;SDS011;27753;55.724;37.612;2023-03-13T16:06:15;3.83;;;1.90;;
42094;SDS011;27753;55.724;37.612;2023-03-13T16:08:43;5.30;;;2.72;;
42094;SDS011;27753;55.724;37.612;2023-03-13T16:11:14;2.45;;;2.15;;
42094;SDS011;27753;55.724;37.612;2023-03-13T16:13:41;4.45;;;2.47;;
42094;SDS011;27753;55.724;37.612;2023-03-13T16:16:17;6.60;;;3.70;;
42094;SDS011;27753;55.724;37.612;2023-03-13T16:18:52;4.65;;;2.80;;
42094;SDS011;27753;55.724;37.612;2023-03-13T16:23:55;4.07;;;2.20;;
42094;SDS011;27753;55.724;37.612;2023-03-13T16:26:24;2.50;;;1.83;;
42094;SDS011;27753;55.724;37.612;2023-03-13T16:28:52;2.92;;;2.00;;
42094;SDS011;27753;55.724;37.612;2023-03-13T16:31:23;5.00;;;2.30;;
42094;SDS011;27753;55.724;37.612;2023-03-13T16:33:51;10.48;;;2.97;;
42094;SDS011;27753;55.724;37.612;2023-03-13T16:36:22;4.90;;;2.42;;
42094;SDS011;27753;55.724;37.612;2023-03-13T16:38:54;4.13;;;2.15;;
42094;SDS011;27753;55.724;37.612;2023-03-13T16:41:21;5.25;;;2.20;;
42094;SDS011;27753;55.724;37.612;2023-03-13T16:43:48;5.47;;;2.83;;
42094;SDS011;27753;55.724;37.612;2023-03-13T16:46:19;3.30;;;1.92;;
42094;SDS011;27753;55.724;37.612;2023-03-13T16:48:47;6.00;;;3.40;;
42094;SDS011;27753;55.724;37.612;2023-03-13T16:51:16;4.22;;;3.17;;
42094;SDS011;27753;55.724;37.612;2023-03-13T16:53:50;4.05;;;3.60;;
42094;SDS011;27753;55.724;37.612;2023-03-13T16:59:09;9.80;;;3.53;;
42094;SDS011;27753;55.724;37.612;2023-03-13T17:01:57;3.92;;;2.00;;
42094;SDS011;27753;55.724;37.612;2023-03-13T17:04:46;3.97;;;2.75;;
42094;SDS011;27753;55.724;37.612;2023-03-13T17:09:50;8.57;;;3.88;;
42094;SDS011;27753;55.724;37.612;2023-03-13T17:12:32;3.50;;;2.50;;
42094;SDS011;27753;55.724;37.612;2023-03-13T17:15:04;5.70;;;3.00;;
42094;SDS011;27753;55.724;37.612;2023-03-13T17:17:31;3.75;;;2.70;;
42094;SDS011;27753;55.724;37.612;2023-03-13T17:20:01;3.50;;;2.35;;
42094;SDS011;27753;55.724;37.612;2023-03-13T17:22:29;7.43;;;4.03;;
42094;SDS011;27753;55.724;37.612;2023-03-13T17:24:55;3.97;;;3.58;;
42094;SDS011;27753;55.724;37.612;2023-03-13T17:27:24;3.97;;;2.90;;
42094;SDS011;27753;55.724;37.612;2023-03-13T17:29:53;3.80;;;2.42;;
42094;SDS011;27753;55.724;37.612;2023-03-13T17:32:19;6.63;;;2.65;;
42094;SDS011;27753;55.724;37.612;2023-03-13T17:34:47;6.35;;;3.78;;
42094;SDS011;27753;55.724;37.612;2023-03-13T17:37:18;5.00;;;3.45;;
42094;SDS011;27753;55.724;37.612;2023-03-13T17:39:46;4.40;;;2.78;;
42094;SDS011;27753;55.724;37.612;2023-03-13T17:42:13;4.13;;;3.17;;
42094;SDS011;27753;55.724;37.612;2023-03-13T17:44:40;5.00;;;3.00;;